Time;durP1;ratioP1;P1;durP2;ratioP2;P2;SDS_P1;SDS_P2;PMS_P1;PMS_P2;Temp;Humidity;BMP_temperature;BMP_pressure;BME280_temperature;BME280_humidity;BME280_pressure;Samples;Min_cycle;Max_cycle;Signal;HPM_P1;HPM_P2
2023/10/01 00:04:04;;;;;;;11.80;4.43;;;11.80;99.90;;;;;;10113943;29;20277;-86
2023/10/01 00:09:07;;;;;;;8.52;4.75;;;11.70;99.90;;;;;;10112228;29;20818;-87
2023/10/01 00:14:11;;;;;;;9.70;5.53;;;11.70;99.90;;;;;;10130327;29;20327;-86
2023/10/01 00:19:29;;;;;;;8.93;5.60;;;11.90;99.90;;;;;;10116093;29;20235;-87
2023/10/01 00:24:33;;;;;;;11.52;5.43;;;11.70;99.90;;;;;;10113501;29;20296;-87
2023/10/01 00:29:37;;;;;;;12.45;5.10;;;11.60;99.90;;;;;;10129746;29;20660;-86
2023/10/01 00:34:40;;;;;;;11.60;6.00;;;11.70;99.90;;;;;;10129215;29;20307;-86
2023/10/01 00:39:43;;;;;;;10.25;5.50;;;11.70;99.90;;;;;;10128738;29;20228;-87
2023/10/01 00:44:47;;;;;;;11.60;5.95;;;11.70;99.90;;;;;;10128969;29;20240;-85
2023/10/01 00:49:50;;;;;;;10.15;4.85;;;11.60;99.90;;;;;;10103834;29;20236;-86
2023/10/01 00:54:54;;;;;;;13.00;4.63;;;12.00;99.90;;;;;;10110860;29;20267;-85
2023/10/01 00:59:57;;;;;;;12.65;6.07;;;12.10;99.90;;;;;;10112065;29;20300;-86
2023/10/01 01:05:34;;;;;;;8.18;4.13;;;12.10;99.90;;;;;;10128573;29;20235;-85
2023/10/01 01:10:26;;;;;;;7.03;3.38;;;12.20;99.90;;;;;;10128044;29;20252;-86
2023/10/01 01:15:33;;;;;;;7.05;4.30;;;12.40;99.90;;;;;;10112034;29;20260;-86
2023/10/01 01:20:37;;;;;;;6.57;3.38;;;13.00;99.90;;;;;;10128627;29;20362;-86
2023/10/01 01:25:39;;;;;;;9.85;4.03;;;13.10;99.90;;;;;;10105512;29;20795;-86
2023/10/01 01:30:43;;;;;;;7.13;3.35;;;13.20;99.90;;;;;;10112032;29;20303;-86
2023/10/01 01:35:49;;;;;;;6.25;3.00;;;12.90;99.90;;;;;;10103016;29;20303;-85
2023/10/01 01:40:52;;;;;;;4.05;2.38;;;13.10;99.90;;;;;;10130364;29;20220;-85
2023/10/01 01:46:00;;;;;;;7.63;3.75;;;13.20;99.90;;;;;;10175439;29;20239;-85
2023/10/01 01:51:04;;;;;;;5.40;3.15;;;13.50;99.90;;;;;;10138768;29;20311;-85
2023/10/01 01:56:11;;;;;;;6.07;3.28;;;13.70;99.90;;;;;;10135948;29;20256;-85
2023/10/01 02:01:17;;;;;;;9.95;3.95;;;13.90;99.90;;;;;;10118440;29;20338;-85
2023/10/01 02:06:27;;;;;;;13.70;3.63;;;13.80;99.90;;;;;;10118194;29;20279;-85
2023/10/01 02:11:32;;;;;;;7.60;3.00;;;13.90;99.90;;;;;;10117513;29;20318;-86
2023/10/01 02:16:37;;;;;;;5.85;2.90;;;13.70;99.90;;;;;;10099944;29;20244;-86
2023/10/01 02:22:02;;;;;;;8.63;3.60;;;13.70;99.90;;;;;;10116843;29;20667;-86
2023/10/01 02:27:09;;;;;;;9.80;3.40;;;13.50;99.90;;;;;;10134457;29;20272;-87
2023/10/01 02:32:14;;;;;;;9.45;3.00;;;13.50;99.90;;;;;;10128159;29;20330;-86
2023/10/01 02:37:29;;;;;;;7.70;3.20;;;13.90;99.90;;;;;;10160808;29;20252;-86
2023/10/01 02:42:32;;;;;;;7.20;2.88;;;13.90;99.90;;;;;;10116215;29;20248;-86
2023/10/01 02:47:34;;;;;;;6.18;2.40;;;14.30;99.90;;;;;;10133573;29;20244;-86
2023/10/01 02:52:39;;;;;;;5.32;2.88;;;14.60;99.90;;;;;;10115878;29;20323;-86
2023/10/01 02:57:41;;;;;;;5.20;2.70;;;14.80;99.90;;;;;;10108679;29;20275;-86
2023/10/01 03:02:52;;;;;;;4.75;2.10;;;14.70;99.90;;;;;;10111066;29;20299;-86
2023/10/01 03:07:56;;;;;;;5.72;2.30;;;15.00;99.90;;;;;;10103968;29;20240;-85
2023/10/01 03:13:01;;;;;;;4.53;2.70;;;15.30;99.90;;;;;;10102215;29;20263;-86
2023/10/01 03:18:34;;;;;;;3.65;2.30;;;15.30;99.90;;;;;;10082895;29;20679;-86
2023/10/01 03:23:29;;;;;;;4.68;2.55;;;15.50;99.90;;;;;;10118850;29;20231;-86
2023/10/01 03:33:59;;;;;;;3.53;2.45;;;15.70;99.90;;;;;;10121647;29;20290;-84
2023/10/01 03:44:59;;;;;;;7.22;2.00;;;15.90;99.90;;;;;;10116990;29;20232;-86
2023/10/01 03:49:45;;;;;;;5.45;1.98;;;16.20;99.90;;;;;;10118569;29;20711;-86
2023/10/01 04:00:28;;;;;;;2.08;1.33;;;16.70;99.40;;;;;;10119754;29;20256;-86
2023/10/01 04:05:23;;;;;;;3.50;2.28;;;16.60;99.90;;;;;;10121109;29;20236;-86
2023/10/01 04:15:31;;;;;;;4.38;2.08;;;16.20;98.70;;;;;;10129644;29;20252;-86
2023/10/01 04:20:34;;;;;;;3.45;1.65;;;16.30;99.10;;;;;;10126096;29;20294;-85
2023/10/01 04:25:38;;;;;;;2.85;1.50;;;16.00;97.30;;;;;;10169188;29;20322;-85
2023/10/01 04:30:44;;;;;;;6.65;2.50;;;16.40;99.70;;;;;;10114554;29;20264;-86
2023/10/01 04:35:58;;;;;;;9.00;3.05;;;16.30;94.20;;;;;;10123348;29;20272;-85
2023/10/01 04:41:03;;;;;;;7.10;2.00;;;16.30;97.40;;;;;;10129507;29;20232;-86
2023/10/01 04:46:08;;;;;;;3.72;1.98;;;16.10;95.70;;;;;;10150234;29;20236;-86
2023/10/01 04:51:12;;;;;;;4.50;2.17;;;16.20;99.90;;;;;;10128296;29;20986;-85
2023/10/01 04:56:20;;;;;;;3.97;2.25;;;16.10;99.60;;;;;;10128224;29;20231;-85
2023/10/01 05:01:28;;;;;;;2.97;1.88;;;16.10;98.80;;;;;;10128693;29;20239;-85
2023/10/01 05:06:31;;;;;;;4.07;2.35;;;16.60;99.00;;;;;;10112261;29;20240;-85
2023/10/01 05:11:34;;;;;;;6.53;1.80;;;16.70;95.60;;;;;;10127741;29;20790;-85
2023/10/01 05:16:38;;;;;;;2.08;1.50;;;16.80;97.50;;;;;;10128343;29;20236;-85
2023/10/01 05:21:46;;;;;;;7.80;2.58;;;16.90;99.30;;;;;;10129261;29;20687;-85
2023/10/01 05:26:51;;;;;;;3.22;1.83;;;17.30;93.50;;;;;;10128796;29;20327;-85
2023/10/01 05:31:56;;;;;;;5.05;2.13;;;17.10;95.50;;;;;;10119438;29;20267;-85
2023/10/01 05:37:12;;;;;;;2.28;1.58;;;17.20;96.20;;;;;;10166126;29;20286;-85
2023/10/01 05:42:19;;;;;;;1.90;1.50;;;17.70;96.80;;;;;;10114858;29;20671;-85
2023/10/01 05:47:22;;;;;;;7.20;3.10;;;17.40;96.20;;;;;;10149545;29;20244;-85
2023/10/01 05:52:26;;;;;;;6.72;2.70;;;16.90;93.30;;;;;;10127503;29;20248;-85
2023/10/01 05:57:29;;;;;;;3.88;1.85;;;16.70;95.00;;;;;;10110940;29;20685;-84
2023/10/01 06:02:41;;;;;;;5.45;2.65;;;16.30;95.90;;;;;;10111670;29;20228;-85
2023/10/01 06:07:44;;;;;;;5.95;2.70;;;16.30;95.50;;;;;;10111341;29;20287;-85
2023/10/01 06:12:50;;;;;;;8.55;3.08;;;16.10;94.40;;;;;;10127314;29;20295;-84
2023/10/01 06:17:53;;;;;;;5.97;2.33;;;15.80;95.80;;;;;;10126640;29;20252;-85
2023/10/01 06:22:59;;;;;;;5.88;2.78;;;16.10;98.70;;;;;;10127885;29;20776;-85
2023/10/01 06:28:07;;;;;;;4.80;1.77;;;16.20;95.60;;;;;;10134697;29;20268;-85
2023/10/01 06:33:24;;;;;;;4.90;1.90;;;16.80;98.00;;;;;;10134492;29;20788;-85
2023/10/01 06:38:27;;;;;;;4.35;2.63;;;17.00;97.00;;;;;;10132376;29;20240;-85
2023/10/01 06:43:32;;;;;;;4.32;2.35;;;17.30;94.10;;;;;;10133726;29;20359;-85
2023/10/01 06:48:36;;;;;;;4.50;1.67;;;17.40;95.00;;;;;;10127342;29;20240;-85
2023/10/01 06:53:48;;;;;;;4.75;1.55;;;17.70;95.60;;;;;;10115675;29;20263;-85
2023/10/01 06:59:13;;;;;;;4.20;2.08;;;18.10;94.50;;;;;;10114934;29;20679;-84
2023/10/01 07:04:20;;;;;;;2.72;1.55;;;18.40;90.70;;;;;;10122775;29;20296;-84
2023/10/01 07:09:28;;;;;;;4.70;1.85;;;18.10;90.80;;;;;;10116433;29;20303;-84
2023/10/01 07:14:53;;;;;;;2.95;1.95;;;18.20;91.60;;;;;;10116077;29;20324;-84
2023/10/01 07:20:01;;;;;;;2.63;1.60;;;18.20;92.70;;;;;;10139721;29;20302;-84
2023/10/01 07:25:04;;;;;;;8.10;1.60;;;18.30;93.20;;;;;;10113118;29;20271;-84
2023/10/01 07:30:07;;;;;;;6.07;2.55;;;18.40;92.40;;;;;;10132138;29;20232;-84
2023/10/01 07:35:13;;;;;;;2.60;1.52;;;18.40;90.00;;;;;;10124215;29;20747;-84
2023/10/01 07:40:17;;;;;;;4.32;2.00;;;18.70;92.70;;;;;;10111272;29;21429;-84
2023/10/01 07:45:20;;;;;;;4.63;2.17;;;18.90;90.60;;;;;;10170446;29;20239;-84
2023/10/01 07:50:24;;;;;;;6.88;2.30;;;19.00;85.90;;;;;;10170447;29;20239;-84
2023/10/01 07:55:29;;;;;;;2.20;1.67;;;19.10;90.00;;;;;;10125644;29;20341;-84
2023/10/01 08:00:34;;;;;;;6.88;2.67;;;19.40;90.50;;;;;;10128860;29;20224;-84
2023/10/01 08:05:39;;;;;;;5.60;2.53;;;19.60;85.90;;;;;;10131144;29;20232;-85
2023/10/01 08:10:43;;;;;;;1.98;1.27;;;;;;;;;;10112522;29;20725;-84
2023/10/01 08:15:57;;;;;;;2.80;1.48;;;20.20;89.80;;;;;;10112356;29;20259;-84
2023/10/01 08:21:15;;;;;;;2.03;1.05;;;20.00;87.80;;;;;;10130507;29;20255;-84
2023/10/01 08:37:06;;;;;;;5.75;3.08;;;20.90;85.90;;;;;;10114075;29;20212;-84
2023/10/01 08:42:09;;;;;;;3.08;1.60;;;20.90;81.20;;;;;;10142148;29;20388;-84
2023/10/01 08:47:32;;;;;;;2.17;1.40;;;20.90;82.00;;;;;;10135459;29;20244;-84
2023/10/01 08:52:35;;;;;;;2.88;1.48;;;21.00;83.40;;;;;;10128596;29;20730;-84
2023/10/01 08:57:37;;;;;;;2.60;1.60;;;21.40;80.00;;;;;;10128974;29;20280;-84
2023/10/01 09:02:42;;;;;;;2.53;1.65;;;;;;;;;;10112015;29;20235;-84
2023/10/01 09:07:50;;;;;;;4.55;1.35;;;;;;;;;;10111570;29;20244;-85
2023/10/01 09:13:03;;;;;;;4.28;1.40;;;21.10;71.40;;;;;;10128194;29;20260;-84
2023/10/01 09:18:10;;;;;;;3.53;1.52;;;21.10;74.30;;;;;;10112510;29;20224;-85
2023/10/01 09:23:13;;;;;;;3.50;1.77;;;21.00;71.60;;;;;;10128414;29;20311;-84
2023/10/01 09:28:29;;;;;;;5.47;1.73;;;21.00;73.60;;;;;;10125139;29;20264;-84
2023/10/01 09:33:32;;;;;;;9.00;2.60;;;21.00;77.20;;;;;;10128372;29;20271;-84
2023/10/01 09:38:57;;;;;;;2.47;1.35;;;21.10;69.40;;;;;;10127734;29;20292;-84
2023/10/01 09:44:03;;;;;;;3.72;1.80;;;21.20;76.10;;;;;;10128186;29;20264;-84
2023/10/01 09:49:05;;;;;;;2.85;1.52;;;21.30;73.70;;;;;;10117674;29;20260;-84
2023/10/01 09:54:13;;;;;;;2.83;1.85;;;21.30;72.20;;;;;;10125984;29;20321;-84
2023/10/01 09:59:16;;;;;;;2.22;1.40;;;21.30;73.80;;;;;;10125350;29;20227;-84
2023/10/01 10:04:20;;;;;;;4.13;1.67;;;21.30;73.30;;;;;;10127540;29;20826;-84
2023/10/01 10:09:25;;;;;;;2.08;1.45;;;21.30;68.00;;;;;;10110130;29;20787;-85
2023/10/01 10:14:28;;;;;;;2.65;1.77;;;21.50;71.90;;;;;;10125867;29;20259;-84
2023/10/01 10:19:31;;;;;;;2.00;1.38;;;21.50;70.00;;;;;;10117752;29;20759;-84
2023/10/01 10:24:46;;;;;;;2.65;1.33;;;21.60;71.30;;;;;;10134131;29;20909;-86
2023/10/01 10:30:00;;;;;;;4.07;1.80;;;21.60;67.40;;;;;;10123796;29;20233;-84
2023/10/01 10:35:03;;;;;;;2.90;1.92;;;21.70;69.00;;;;;;10133419;29;20259;-85
2023/10/01 10:45:24;;;;;;;5.20;2.25;;;21.90;52.90;;;;;;10133102;29;20236;-85
2023/10/01 10:50:50;;;;;;;11.23;3.10;;;21.90;49.30;;;;;;10133848;29;20295;-85
2023/10/01 10:56:13;;;;;;;2.88;1.45;;;21.80;47.30;;;;;;10116703;29;20264;-86
2023/10/01 11:01:16;;;;;;;4.97;1.95;;;21.80;48.80;;;;;;10116937;29;20295;-85
2023/10/01 11:06:22;;;;;;;5.50;2.63;;;21.80;48.70;;;;;;10133411;29;20283;-85
2023/10/01 11:11:43;;;;;;;5.90;2.10;;;21.50;48.50;;;;;;10115510;29;20255;-86
2023/10/01 11:16:49;;;;;;;10.90;2.10;;;21.70;49.30;;;;;;10116489;29;20255;-86
2023/10/01 11:22:00;;;;;;;8.43;2.50;;;21.90;48.30;;;;;;10164072;29;20288;-85
2023/10/01 11:27:25;;;;;;;3.60;1.80;;;22.20;47.00;;;;;;10171695;29;20351;-86
2023/10/01 11:38:19;;;;;;;5.50;2.20;;;22.30;45.50;;;;;;10170739;29;20792;-86
2023/10/01 11:43:27;;;;;;;7.40;2.40;;;22.00;42.30;;;;;;10153443;29;20231;-85
2023/10/01 11:48:37;;;;;;;3.63;2.08;;;22.10;45.40;;;;;;10170287;29;20307;-85
2023/10/01 11:54:08;;;;;;;7.22;2.83;;;22.10;44.30;;;;;;10170852;29;20254;-86
2023/10/01 11:59:20;;;;;;;4.35;1.67;;;22.10;45.00;;;;;;10122072;29;20275;-86
2023/10/01 12:04:24;;;;;;;5.20;2.03;;;22.20;46.00;;;;;;10130412;29;20232;-86
2023/10/01 12:09:39;;;;;;;2.85;1.98;;;22.20;46.20;;;;;;10131005;29;20243;-85
2023/10/01 12:20:23;;;;;;;4.85;1.83;;;22.00;46.20;;;;;;9929953;29;20248;-86
2023/10/01 12:25:42;;;;;;;7.90;2.53;;;22.00;42.50;;;;;;9934956;29;20271;-85
2023/10/01 12:30:57;;;;;;;5.13;2.40;;;21.70;43.90;;;;;;9935102;29;20258;-86
2023/10/01 12:36:03;;;;;;;3.90;2.08;;;21.40;44.50;;;;;;9919240;29;20762;-86
2023/10/01 12:41:06;;;;;;;5.88;2.40;;;21.20;47.80;;;;;;9941329;29;20247;-86
2023/10/01 12:46:12;;;;;;;6.18;2.05;;;21.00;47.90;;;;;;9972154;29;20311;-86
2023/10/01 12:51:15;;;;;;;5.55;2.20;;;20.70;50.50;;;;;;9991828;29;20252;-86
2023/10/01 12:56:35;;;;;;;4.50;1.98;;;20.70;51.20;;;;;;10128802;29;20724;-85
2023/10/01 13:01:38;;;;;;;4.70;2.30;;;21.00;63.70;;;;;;10127769;29;20283;-86
2023/10/01 13:06:40;;;;;;;2.55;1.30;;;20.60;65.40;;;;;;10128675;29;20240;-86
2023/10/01 13:11:50;;;;;;;5.38;2.67;;;20.80;57.90;;;;;;10127453;29;20705;-86
2023/10/01 13:16:56;;;;;;;2.80;1.80;;;20.70;57.40;;;;;;10095837;29;20256;-86
2023/10/01 13:22:04;;;;;;;5.47;2.25;;;20.70;63.10;;;;;;10127662;29;20228;-86
2023/10/01 13:27:17;;;;;;;4.82;2.20;;;20.90;59.60;;;;;;10123772;29;20259;-84
2023/10/01 13:32:32;;;;;;;5.47;1.90;;;21.00;48.40;;;;;;10126088;29;20307;-84
2023/10/01 13:37:44;;;;;;;5.63;2.55;;;21.10;46.00;;;;;;10130339;29;20323;-84
2023/10/01 14:09:51;;;;;;;4.43;2.55;;;21.70;44.80;;;;;;10013480;29;20744;-84
2023/10/01 14:14:53;;;;;;;7.53;1.92;;;21.80;42.40;;;;;;10014289;29;20290;-84
2023/10/01 14:19:56;;;;;;;3.63;2.05;;;22.00;46.00;;;;;;10013845;29;20238;-84
2023/10/01 14:25:20;;;;;;;11.77;3.53;;;21.90;43.10;;;;;;10012804;29;20303;-84
2023/10/01 14:30:24;;;;;;;5.55;2.55;;;21.60;43.10;;;;;;10010737;29;20687;-84
2023/10/01 14:35:37;;;;;;;5.13;2.25;;;21.80;42.70;;;;;;10102992;29;20275;-84
2023/10/01 14:40:43;;;;;;;6.75;2.30;;;22.00;42.80;;;;;;9790655;29;9999898;-84
2023/10/01 14:45:45;;;;;;;3.45;1.98;;;21.80;45.40;;;;;;10107374;29;20297;-84
2023/10/01 14:50:49;;;;;;;9.55;2.53;;;21.80;47.80;;;;;;10129638;29;20767;-85
2023/10/01 14:55:54;;;;;;;3.28;2.00;;;21.70;42.90;;;;;;10095828;29;20260;-85
2023/10/01 15:00:57;;;;;;;6.78;2.53;;;21.30;46.40;;;;;;10113363;29;20646;-85
2023/10/01 15:06:04;;;;;;;8.23;2.50;;;21.10;44.80;;;;;;10130063;29;20244;-85
2023/10/01 15:11:13;;;;;;;4.60;2.28;;;21.10;49.60;;;;;;10113577;29;20275;-85
2023/10/01 15:16:17;;;;;;;4.45;1.90;;;21.10;49.50;;;;;;10129087;29;20346;-85
2023/10/01 15:21:40;;;;;;;8.68;2.13;;;21.10;52.90;;;;;;10128805;29;20243;-85
2023/10/01 15:26:45;;;;;;;4.72;1.92;;;20.90;52.10;;;;;;10127586;29;20271;-85
2023/10/01 15:31:51;;;;;;;7.30;1.95;;;20.90;51.70;;;;;;10128376;29;20284;-85
2023/10/01 15:37:02;;;;;;;3.90;1.60;;;20.90;56.50;;;;;;10128191;29;20295;-85
2023/10/01 15:42:18;;;;;;;2.67;1.55;;;20.90;55.80;;;;;;10126136;29;20228;-85
2023/10/01 15:52:49;;;;;;;6.85;2.65;;;19.90;56.10;;;;;;10109895;29;20648;-85
2023/10/01 15:58:01;;;;;;;6.22;3.13;;;19.70;56.90;;;;;;10110357;29;20814;-85
2023/10/01 16:03:08;;;;;;;5.13;1.85;;;19.30;61.70;;;;;;10128729;29;20730;-84
2023/10/01 16:08:26;;;;;;;2.72;1.85;;;19.30;68.50;;;;;;10128393;29;20256;-85
2023/10/01 16:13:31;;;;;;;6.10;3.25;;;19.40;68.50;;;;;;10128163;29;20299;-85
2023/10/01 16:18:38;;;;;;;5.85;2.47;;;19.20;66.50;;;;;;10112648;29;20232;-85
2023/10/01 16:23:48;;;;;;;5.78;2.72;;;18.70;71.70;;;;;;10130589;29;20240;-85
2023/10/01 16:28:58;;;;;;;6.88;3.70;;;18.50;78.30;;;;;;10090202;29;20304;-85
2023/10/01 16:34:02;;;;;;;4.85;2.90;;;18.30;83.40;;;;;;10095160;29;20244;-85
2023/10/01 16:39:12;;;;;;;3.00;2.42;;;18.10;86.10;;;;;;10089198;29;20643;-84
2023/10/01 16:44:15;;;;;;;24.67;3.95;;;17.90;90.60;;;;;;10129110;29;20236;-84
2023/10/01 16:49:18;;;;;;;4.68;2.95;;;17.60;92.20;;;;;;10112585;29;20676;-84
2023/10/01 16:54:21;;;;;;;7.53;2.88;;;17.70;92.40;;;;;;10127748;29;20304;-84
2023/10/01 16:59:24;;;;;;;4.07;2.50;;;17.50;93.00;;;;;;9788517;29;9999861;-84
2023/10/01 17:04:27;;;;;;;9.35;3.58;;;17.50;93.20;;;;;;10105979;29;20276;-84
2023/10/01 17:09:33;;;;;;;4.25;2.42;;;17.50;93.10;;;;;;10104848;29;20244;-84
2023/10/01 17:14:38;;;;;;;5.28;3.17;;;17.30;94.40;;;;;;10128848;29;20263;-83
2023/10/01 17:19:43;;;;;;;7.45;3.28;;;17.10;95.30;;;;;;10111278;29;20287;-84
2023/10/01 17:24:46;;;;;;;9.43;3.42;;;16.90;95.30;;;;;;10128674;29;20292;-84
2023/10/01 17:29:50;;;;;;;14.85;3.72;;;16.60;97.10;;;;;;10111286;29;20240;-84
2023/10/01 17:34:56;;;;;;;9.13;4.40;;;16.60;97.80;;;;;;10111129;29;20264;-84
2023/10/01 17:40:01;;;;;;;4.75;1.75;;;16.50;98.60;;;;;;10133477;29;20200;-84
2023/10/01 17:45:04;;;;;;;7.95;3.85;;;16.80;99.90;;;;;;10128823;29;21112;-84
2023/10/01 17:50:15;;;;;;;9.07;4.95;;;16.80;97.50;;;;;;10091830;29;20718;-84
2023/10/01 17:55:26;;;;;;;9.13;3.80;;;16.60;97.70;;;;;;10162301;29;20667;-84
2023/10/01 18:00:34;;;;;;;8.77;3.88;;;16.20;98.90;;;;;;10115210;29;20244;-84
2023/10/01 18:05:58;;;;;;;15.18;4.72;;;16.60;99.90;;;;;;10135344;29;20927;-84
2023/10/01 18:11:11;;;;;;;8.93;4.85;;;16.30;99.10;;;;;;10092839;29;20284;-84
2023/10/01 18:16:26;;;;;;;15.82;7.40;;;16.30;99.90;;;;;;10132416;29;20276;-84
2023/10/01 18:21:28;;;;;;;10.95;5.03;;;16.20;99.80;;;;;;10130334;29;20248;-84
2023/10/01 18:26:31;;;;;;;13.32;5.88;;;16.30;99.90;;;;;;10103463;29;20344;-84
2023/10/01 18:31:33;;;;;;;16.95;7.82;;;16.40;99.90;;;;;;10101044;29;20237;-84
2023/10/01 18:36:39;;;;;;;20.58;8.20;;;15.70;99.90;;;;;;10097586;29;20319;-84
2023/10/01 18:41:43;;;;;;;28.15;8.23;;;15.10;99.90;;;;;;10097503;29;20973;-84
2023/10/01 18:46:45;;;;;;;23.90;8.52;;;14.90;99.90;;;;;;10099612;29;20252;-84
2023/10/01 18:51:50;;;;;;;23.35;8.57;;;;;;;;;;10130409;29;20239;-84
2023/10/01 18:56:57;;;;;;;22.20;8.85;;;14.50;99.90;;;;;;10080201;29;20268;-84
2023/10/01 19:02:00;;;;;;;10.20;6.10;;;14.80;99.90;;;;;;10106759;29;20289;-84
2023/10/01 19:07:04;;;;;;;22.90;7.97;;;15.30;99.90;;;;;;10086131;29;20280;-84
2023/10/01 19:12:07;;;;;;;12.88;7.80;;;15.00;99.90;;;;;;10070121;29;20316;-84
2023/10/01 19:17:09;;;;;;;19.33;8.65;;;15.20;99.90;;;;;;10075767;29;20268;-84
2023/10/01 19:22:13;;;;;;;12.38;6.70;;;;;;;;;;10118226;29;20300;-84
2023/10/01 19:27:17;;;;;;;10.55;7.50;;;;;;;;;;10086796;29;20273;-84
2023/10/01 19:32:20;;;;;;;15.05;8.65;;;;;;;;;;10077692;29;20644;-85
2023/10/01 19:37:27;;;;;;;9.10;5.65;;;15.60;99.90;;;;;;10068072;29;20269;-84
2023/10/01 19:42:29;;;;;;;7.32;5.38;;;15.80;99.90;;;;;;10082908;29;20249;-84
2023/10/01 19:47:40;;;;;;;20.23;8.75;;;16.00;99.90;;;;;;10091527;29;20237;-84
2023/10/01 19:52:45;;;;;;;10.32;5.75;;;16.20;99.90;;;;;;10094414;29;20296;-85
2023/10/01 19:57:47;;;;;;;12.68;7.30;;;16.20;99.90;;;;;;10086501;29;20512;-84
2023/10/01 20:02:50;;;;;;;20.25;8.55;;;16.60;99.90;;;;;;10094710;29;20232;-84
2023/10/01 20:07:57;;;;;;;12.20;7.85;;;15.80;99.90;;;;;;10130576;29;20247;-84
2023/10/01 20:13:01;;;;;;;12.80;7.90;;;16.00;99.90;;;;;;10098832;29;20264;-84
2023/10/01 20:18:09;;;;;;;14.77;7.85;;;16.00;99.90;;;;;;10094127;29;20264;-84
2023/10/01 20:23:13;;;;;;;13.90;7.30;;;16.50;99.90;;;;;;10125319;29;20248;-85
2023/10/01 20:28:15;;;;;;;10.20;6.72;;;16.20;99.90;;;;;;10158000;29;20259;-84
2023/10/01 20:33:22;;;;;;;11.68;7.93;;;16.20;99.90;;;;;;10124433;29;20267;-85
2023/10/01 20:38:27;;;;;;;10.82;6.85;;;16.10;99.90;;;;;;10126642;29;20771;-84
2023/10/01 20:43:32;;;;;;;13.85;7.32;;;16.40;99.90;;;;;;10130032;29;20628;-85
2023/10/01 20:48:38;;;;;;;8.10;5.80;;;16.00;99.90;;;;;;10141148;29;20319;-85
2023/10/01 20:53:46;;;;;;;11.60;6.78;;;16.00;99.90;;;;;;10138834;29;20243;-85
2023/10/01 20:58:52;;;;;;;11.45;7.13;;;16.60;99.90;;;;;;10122924;29;20284;-84
2023/10/01 21:03:55;;;;;;;11.10;6.40;;;15.90;99.90;;;;;;10119069;29;20225;-84
2023/10/01 21:09:18;;;;;;;9.60;6.35;;;15.80;99.90;;;;;;10136255;29;20255;-84
2023/10/01 21:14:34;;;;;;;13.23;7.10;;;16.00;99.90;;;;;;10106970;29;20259;-85
2023/10/01 21:19:48;;;;;;;10.23;6.53;;;15.60;99.90;;;;;;10114610;29;20256;-83
2023/10/01 21:24:50;;;;;;;14.02;6.38;;;15.70;99.90;;;;;;10130786;29;20259;-83
2023/10/01 21:29:54;;;;;;;10.77;6.70;;;15.70;99.90;;;;;;10142767;29;20279;-83
2023/10/01 21:34:57;;;;;;;12.05;6.13;;;15.70;99.90;;;;;;10109711;29;20291;-84
2023/10/01 21:40:00;;;;;;;15.40;6.10;;;15.50;99.90;;;;;;10124602;29;20236;-84
2023/10/01 21:45:26;;;;;;;12.68;6.10;;;16.00;99.90;;;;;;10149693;29;20236;-84
2023/10/01 21:50:31;;;;;;;14.90;7.28;;;15.80;99.90;;;;;;10110601;29;20307;-84
2023/10/01 21:55:33;;;;;;;13.38;5.88;;;15.50;99.90;;;;;;10130393;29;20348;-83
2023/10/01 22:01:00;;;;;;;13.07;6.53;;;15.40;99.90;;;;;;10122987;29;20719;-84
2023/10/01 22:06:05;;;;;;;8.65;5.25;;;15.60;99.90;;;;;;10135896;29;20279;-84
2023/10/01 22:11:11;;;;;;;9.43;5.57;;;15.80;99.90;;;;;;10131312;29;20637;-83
2023/10/01 22:16:13;;;;;;;13.63;5.85;;;15.80;99.90;;;;;;10135091;29;20319;-83
2023/10/01 22:21:20;;;;;;;7.70;5.68;;;15.80;99.90;;;;;;10133950;29;20319;-83
2023/10/01 22:26:22;;;;;;;9.57;6.13;;;15.70;99.90;;;;;;10134805;29;20272;-83
2023/10/01 22:31:27;;;;;;;10.27;6.85;;;15.80;99.90;;;;;;10136290;29;20244;-83
2023/10/01 22:36:46;;;;;;;11.48;6.60;;;15.90;99.90;;;;;;10160997;29;20267;-83
2023/10/01 22:41:50;;;;;;;9.57;5.72;;;16.00;99.90;;;;;;10129142;29;20271;-83
2023/10/01 22:46:53;;;;;;;11.40;6.22;;;16.10;99.90;;;;;;10143772;29;20288;-83
2023/10/01 22:51:56;;;;;;;10.20;5.55;;;15.80;99.90;;;;;;10116633;29;20247;-83
2023/10/01 22:57:01;;;;;;;12.10;6.05;;;16.20;99.90;;;;;;10133497;29;20267;-84
2023/10/01 23:02:06;;;;;;;6.95;4.70;;;16.20;99.90;;;;;;10133234;29;20240;-83
2023/10/01 23:07:08;;;;;;;9.95;5.57;;;15.90;99.90;;;;;;10116209;29;20259;-83
2023/10/01 23:12:12;;;;;;;11.07;5.38;;;16.00;99.90;;;;;;10133047;29;20236;-83
2023/10/01 23:17:31;;;;;;;11.68;5.57;;;16.10;99.90;;;;;;10132189;29;20260;-83
2023/10/01 23:22:35;;;;;;;12.90;5.03;;;16.00;99.90;;;;;;10115497;29;20752;-83
2023/10/01 23:27:58;;;;;;;9.50;6.00;;;16.00;99.90;;;;;;10132012;29;20264;-83
2023/10/01 23:33:08;;;;;;;8.23;4.53;;;15.90;99.90;;;;;;10131460;29;20239;-83
2023/10/01 23:38:26;;;;;;;9.77;5.20;;;15.70;99.90;;;;;;10131703;29;20860;-83
2023/10/01 23:48:52;;;;;;;10.05;5.38;;;15.50;99.90;;;;;;10130442;29;20367;-83
2023/10/01 23:53:55;;;;;;;6.93;4.75;;;15.70;99.90;;;;;;10131219;29;20261;-83
2023/10/01 23:59:23;;;;;;;8.55;4.97;;;15.70;99.90;;;;;;10114608;29;20315;-83
